sensor_id;sensor_type;location;lat;lon;timestamp;pressure;altitude;pressure_sealevel;temperature;humidity
59487;BME280;45298;54.918;73.504;2024-02-14T00:02:13;98498.34;;;-7.54;90.35
59487;BME280;45298;54.918;73.504;2024-02-14T00:04:42;98504.25;;;-7.46;91.27
59487;BME280;45298;54.918;73.504;2024-02-14T00:07:11;98509.41;;;-7.46;90.50
59487;BME280;45298;54.918;73.504;2024-02-14T00:09:40;98516.22;;;-7.43;90.43
59487;BME280;45298;54.918;73.504;2024-02-14T00:12:09;98507.59;;;-7.39;90.95
59487;BME280;45298;54.918;73.504;2024-02-14T00:14:39;98500.69;;;-7.38;90.41
59487;BME280;45298;54.918;73.504;2024-02-14T00:17:08;98476.72;;;-7.44;90.90
59487;BME280;45298;54.918;73.504;2024-02-14T00:19:38;98484.47;;;-7.45;91.05
59487;BME280;45298;54.918;73.504;2024-02-14T00:22:08;98505.88;;;-7.41;91.32
59487;BME280;45298;54.918;73.504;2024-02-14T00:24:37;98498.13;;;-7.38;91.24
59487;BME280;45298;54.918;73.504;2024-02-14T00:27:05;98510.13;;;-7.37;90.94
59487;BME280;45298;54.918;73.504;2024-02-14T00:29:34;98486.16;;;-7.43;90.91
59487;BME280;45298;54.918;73.504;2024-02-14T00:32:03;98409.47;;;-7.81;90.42
59487;BME280;45298;54.918;73.504;2024-02-14T00:34:32;98494.69;;;-7.37;91.44
59487;BME280;45298;54.918;73.504;2024-02-14T00:37:03;98475.91;;;-7.46;90.27
59487;BME280;45298;54.918;73.504;2024-02-14T00:39:32;98483.56;;;-7.41;90.56
59487;BME280;45298;54.918;73.504;2024-02-14T00:42:02;98470.66;;;-7.39;91.06
59487;BME280;45298;54.918;73.504;2024-02-14T00:44:31;98491.25;;;-7.38;91.45
59487;BME280;45298;54.918;73.504;2024-02-14T00:47:00;98477.59;;;-7.45;90.61
59487;BME280;45298;54.918;73.504;2024-02-14T00:49:30;98496.44;;;-7.41;91.29
59487;BME280;45298;54.918;73.504;2024-02-14T00:52:03;98481.88;;;-7.42;91.61
59487;BME280;45298;54.918;73.504;2024-02-14T00:54:32;98459.75;;;-7.57;91.08
59487;BME280;45298;54.918;73.504;2024-02-14T00:57:02;98487.06;;;-7.45;91.40
59487;BME280;45298;54.918;73.504;2024-02-14T00:59:31;98506.78;;;-7.44;91.19
59487;BME280;45298;54.918;73.504;2024-02-14T01:01:59;98489.72;;;-7.50;90.65
59487;BME280;45298;54.918;73.504;2024-02-14T01:04:29;98493.13;;;-7.49;91.05
59487;BME280;45298;54.918;73.504;2024-02-14T01:06:59;98499.09;;;-7.47;90.35
59487;BME280;45298;54.918;73.504;2024-02-14T01:09:28;98501.72;;;-7.50;91.20
59487;BME280;45298;54.918;73.504;2024-02-14T01:11:56;98500.03;;;-7.53;90.90
59487;BME280;45298;54.918;73.504;2024-02-14T01:14:26;98500.13;;;-7.57;90.99
59487;BME280;45298;54.918;73.504;2024-02-14T01:16:56;98455.78;;;-7.78;90.61
59487;BME280;45298;54.918;73.504;2024-02-14T01:19:25;98480.50;;;-7.68;91.05
59487;BME280;45298;54.918;73.504;2024-02-14T01:21:56;98474.50;;;-7.68;90.24
59487;BME280;45298;54.918;73.504;2024-02-14T01:24:25;98460.88;;;-7.75;90.88
59487;BME280;45298;54.918;73.504;2024-02-14T01:26:58;98470.25;;;-7.71;90.81
59487;BME280;45298;54.918;73.504;2024-02-14T01:29:27;98469.38;;;-7.70;90.98
59487;BME280;45298;54.918;73.504;2024-02-14T01:31:56;98463.41;;;-7.74;90.48
59487;BME280;45298;54.918;73.504;2024-02-14T01:34:25;98467.78;;;-7.79;91.41
59487;BME280;45298;54.918;73.504;2024-02-14T01:36:54;98470.44;;;-7.86;90.69
59487;BME280;45298;54.918;73.504;2024-02-14T01:39:38;98480.81;;;-7.91;90.40
59487;BME280;45298;54.918;73.504;2024-02-14T01:42:11;98471.50;;;-8.03;90.16
59487;BME280;45298;54.918;73.504;2024-02-14T01:44:40;98490.44;;;-8.06;90.28
59487;BME280;45298;54.918;73.504;2024-02-14T01:47:11;98489.69;;;-8.15;90.43
59487;BME280;45298;54.918;73.504;2024-02-14T01:49:41;98494.03;;;-8.21;90.66
59487;BME280;45298;54.918;73.504;2024-02-14T01:52:12;98501.81;;;-8.30;90.68
59487;BME280;45298;54.918;73.504;2024-02-14T01:54:42;98515.66;;;-8.40;90.27
59487;BME280;45298;54.918;73.504;2024-02-14T01:57:11;98518.28;;;-8.46;90.28
59487;BME280;45298;54.918;73.504;2024-02-14T01:59:40;98526.97;;;-8.55;90.00
59487;BME280;45298;54.918;73.504;2024-02-14T02:02:10;98505.66;;;-8.68;89.79
59487;BME280;45298;54.918;73.504;2024-02-14T02:04:40;98502.31;;;-8.76;89.30
59487;BME280;45298;54.918;73.504;2024-02-14T02:07:09;98515.22;;;-8.86;89.01
59487;BME280;45298;54.918;73.504;2024-02-14T02:09:38;98523.88;;;-8.93;89.02
59487;BME280;45298;54.918;73.504;2024-02-14T02:12:07;98541.88;;;-8.96;89.00
59487;BME280;45298;54.918;73.504;2024-02-14T02:14:36;98540.22;;;-9.05;88.68
59487;BME280;45298;54.918;73.504;2024-02-14T02:17:08;98530.03;;;-9.16;88.53
59487;BME280;45298;54.918;73.504;2024-02-14T02:19:40;98517.31;;;-9.37;88.68
59487;BME280;45298;54.918;73.504;2024-02-14T02:22:10;98547.19;;;-9.27;89.07
59487;BME280;45298;54.918;73.504;2024-02-14T02:24:39;98565.19;;;-9.29;88.86
59487;BME280;45298;54.918;73.504;2024-02-14T02:27:09;98543.84;;;-9.35;89.09
59487;BME280;45298;54.918;73.504;2024-02-14T02:29:38;98542.16;;;-9.43;88.74
59487;BME280;45298;54.918;73.504;2024-02-14T02:32:07;98543.91;;;-9.51;88.81
59487;BME280;45298;54.918;73.504;2024-02-14T02:34:38;98537.97;;;-9.56;88.99
59487;BME280;45298;54.918;73.504;2024-02-14T02:37:08;98538.81;;;-9.57;88.92
59487;BME280;45298;54.918;73.504;2024-02-14T02:39:37;98547.41;;;-9.67;89.17
59487;BME280;45298;54.918;73.504;2024-02-14T02:42:06;98560.22;;;-9.64;88.84
59487;BME280;45298;54.918;73.504;2024-02-14T02:44:38;98549.16;;;-9.73;88.78
59487;BME280;45298;54.918;73.504;2024-02-14T02:47:08;98556.03;;;-9.78;89.30
59487;BME280;45298;54.918;73.504;2024-02-14T02:49:39;98553.44;;;-9.79;88.92
59487;BME280;45298;54.918;73.504;2024-02-14T02:52:08;98540.72;;;-10.03;88.32
59487;BME280;45298;54.918;73.504;2024-02-14T02:54:38;98584.31;;;-9.96;87.57
59487;BME280;45298;54.918;73.504;2024-02-14T02:57:12;98548.47;;;-10.29;87.66
59487;BME280;45298;54.918;73.504;2024-02-14T02:59:40;98572.38;;;-10.18;87.01
59487;BME280;45298;54.918;73.504;2024-02-14T03:02:11;98573.25;;;-10.29;86.64
59487;BME280;45298;54.918;73.504;2024-02-14T03:04:40;98576.69;;;-10.34;87.24
59487;BME280;45298;54.918;73.504;2024-02-14T03:07:19;98585.28;;;-10.41;86.16
59487;BME280;45298;54.918;73.504;2024-02-14T03:09:49;98578.44;;;-10.60;86.23
59487;BME280;45298;54.918;73.504;2024-02-14T03:12:17;98560.50;;;-10.85;85.92
59487;BME280;45298;54.918;73.504;2024-02-14T03:14:47;98550.28;;;-10.95;84.92
59487;BME280;45298;54.918;73.504;2024-02-14T03:17:16;98578.47;;;-10.91;83.99
59487;BME280;45298;54.918;73.504;2024-02-14T03:19:45;98589.53;;;-10.86;84.92
59487;BME280;45298;54.918;73.504;2024-02-14T03:22:15;98574.16;;;-10.99;84.63
59487;BME280;45298;54.918;73.504;2024-02-14T03:24:45;98593.81;;;-10.95;85.10
59487;BME280;45298;54.918;73.504;2024-02-14T03:27:15;98550.28;;;-11.18;84.25
59487;BME280;45298;54.918;73.504;2024-02-14T03:29:45;98581.00;;;-11.05;84.26
59487;BME280;45298;54.918;73.504;2024-02-14T03:32:15;98556.22;;;-11.24;84.91
59487;BME280;45298;54.918;73.504;2024-02-14T03:34:45;98595.50;;;-11.06;84.35
59487;BME280;45298;54.918;73.504;2024-02-14T03:37:15;98602.31;;;-11.11;85.10
59487;BME280;45298;54.918;73.504;2024-02-14T03:39:45;98592.09;;;-11.08;84.73
59487;BME280;45298;54.918;73.504;2024-02-14T03:42:15;98599.75;;;-11.10;84.83
59487;BME280;45298;54.918;73.504;2024-02-14T03:44:45;98604.03;;;-11.07;84.38
59487;BME280;45298;54.918;73.504;2024-02-14T03:47:14;98602.34;;;-10.96;84.11
59487;BME280;45298;54.918;73.504;2024-02-14T03:49:43;98610.88;;;-10.94;84.59
59487;BME280;45298;54.918;73.504;2024-02-14T03:52:13;98601.50;;;-10.90;83.78
59487;BME280;45298;54.918;73.504;2024-02-14T03:54:42;98610.03;;;-10.80;84.33
59487;BME280;45298;54.918;73.504;2024-02-14T03:57:12;98610.91;;;-10.75;83.23
59487;BME280;45298;54.918;73.504;2024-02-14T03:59:41;98607.50;;;-10.61;83.42
59487;BME280;45298;54.918;73.504;2024-02-14T04:02:10;98585.28;;;-10.59;84.71
59487;BME280;45298;54.918;73.504;2024-02-14T04:04:42;98576.75;;;-10.52;84.65
59487;BME280;45298;54.918;73.504;2024-02-14T04:07:12;98604.06;;;-10.46;83.51
59487;BME280;45298;54.918;73.504;2024-02-14T04:09:41;98618.63;;;-10.50;83.78
59487;BME280;45298;54.918;73.504;2024-02-14T04:12:10;98624.56;;;-10.57;82.27
59487;BME280;45298;54.918;73.504;2024-02-14T04:14:39;98612.63;;;-10.61;82.53
59487;BME280;45298;54.918;73.504;2024-02-14T04:17:08;98627.16;;;-10.54;82.11
59487;BME280;45298;54.918;73.504;2024-02-14T04:19:37;98634.84;;;-10.54;81.00
59487;BME280;45298;54.918;73.504;2024-02-14T04:22:09;98633.97;;;-10.59;80.74
59487;BME280;45298;54.918;73.504;2024-02-14T04:24:40;98627.13;;;-10.64;81.50
59487;BME280;45298;54.918;73.504;2024-02-14T04:27:09;98627.16;;;-10.54;81.79
59487;BME280;45298;54.918;73.504;2024-02-14T04:29:40;98623.72;;;-10.41;80.55
59487;BME280;45298;54.918;73.504;2024-02-14T04:32:10;98653.59;;;-10.15;81.31
59487;BME280;45298;54.918;73.504;2024-02-14T04:34:39;98646.72;;;-9.96;81.17
59487;BME280;45298;54.918;73.504;2024-02-14T04:37:10;98615.94;;;-10.07;81.54
59487;BME280;45298;54.918;73.504;2024-02-14T04:39:42;98631.34;;;-10.07;82.03
59487;BME280;45298;54.918;73.504;2024-02-14T04:42:10;98658.72;;;-10.29;80.25
59487;BME280;45298;54.918;73.504;2024-02-14T04:44:39;98662.19;;;-10.50;81.06
59487;BME280;45298;54.918;73.504;2024-02-14T04:47:08;98668.97;;;-10.69;80.94
59487;BME280;45298;54.918;73.504;2024-02-14T04:49:38;98691.09;;;-11.04;78.46
59487;BME280;45298;54.918;73.504;2024-02-14T04:52:07;98655.94;;;-11.45;81.07
59487;BME280;45298;54.918;73.504;2024-02-14T04:54:39;98695.25;;;-11.37;80.80
59487;BME280;45298;54.918;73.504;2024-02-14T04:57:10;98692.66;;;-11.43;79.35
59487;BME280;45298;54.918;73.504;2024-02-14T04:59:39;98707.13;;;-11.45;80.22
59487;BME280;45298;54.918;73.504;2024-02-14T05:02:08;98676.38;;;-11.56;80.19
59487;BME280;45298;54.918;73.504;2024-02-14T05:04:38;98684.91;;;-11.56;78.59
59487;BME280;45298;54.918;73.504;2024-02-14T05:07:08;98693.53;;;-11.38;79.75
59487;BME280;45298;54.918;73.504;2024-02-14T05:09:37;98691.78;;;-11.47;78.63
59487;BME280;45298;54.918;73.504;2024-02-14T05:12:06;98697.84;;;-11.28;78.32
59487;BME280;45298;54.918;73.504;2024-02-14T05:14:39;98727.78;;;-11.14;78.20
59487;BME280;45298;54.918;73.504;2024-02-14T05:17:08;98716.69;;;-11.10;78.82
59487;BME280;45298;54.918;73.504;2024-02-14T05:19:37;98735.50;;;-11.02;77.97
59487;BME280;45298;54.918;73.504;2024-02-14T05:22:08;98720.97;;;-11.03;76.91
59487;BME280;45298;54.918;73.504;2024-02-14T05:24:37;98713.31;;;-10.97;77.26
59487;BME280;45298;54.918;73.504;2024-02-14T05:27:06;98700.56;;;-10.80;76.45
59487;BME280;45298;54.918;73.504;2024-02-14T05:29:35;98713.34;;;-10.89;76.29
59487;BME280;45298;54.918;73.504;2024-02-14T05:32:04;98705.66;;;-10.81;75.81
59487;BME280;45298;54.918;73.504;2024-02-14T05:34:33;98718.53;;;-10.72;77.00
59487;BME280;45298;54.918;73.504;2024-02-14T05:37:02;98720.25;;;-10.52;75.31
59487;BME280;45298;54.918;73.504;2024-02-14T05:39:31;98735.63;;;-10.58;75.04
59487;BME280;45298;54.918;73.504;2024-02-14T05:42:01;98750.06;;;-10.78;75.01
59487;BME280;45298;54.918;73.504;2024-02-14T05:44:30;98740.72;;;-10.68;82.75
59487;BME280;45298;54.918;73.504;2024-02-14T05:46:59;98741.56;;;-10.78;83.14
59487;BME280;45298;54.918;73.504;2024-02-14T05:49:28;98762.00;;;-10.94;83.27
59487;BME280;45298;54.918;73.504;2024-02-14T05:51:57;98778.22;;;-10.85;82.04
59487;BME280;45298;54.918;73.504;2024-02-14T05:54:26;98766.22;;;-11.02;79.73
59487;BME280;45298;54.918;73.504;2024-02-14T05:56:56;98760.97;;;-11.27;78.71
59487;BME280;45298;54.918;73.504;2024-02-14T05:59:26;98759.25;;;-11.34;79.19
59487;BME280;45298;54.918;73.504;2024-02-14T06:01:55;98776.28;;;-11.34;78.02
59487;BME280;45298;54.918;73.504;2024-02-14T06:04:25;98776.22;;;-11.45;77.39
59487;BME280;45298;54.918;73.504;2024-02-14T06:06:54;98782.16;;;-11.52;75.84
59487;BME280;45298;54.918;73.504;2024-02-14T06:09:23;98798.34;;;-11.57;76.21
59487;BME280;45298;54.918;73.504;2024-02-14T06:11:53;98783.81;;;-11.61;76.34
59487;BME280;45298;54.918;73.504;2024-02-14T06:14:23;98788.94;;;-11.59;77.61
59487;BME280;45298;54.918;73.504;2024-02-14T06:16:52;98808.78;;;-11.29;77.65
59487;BME280;45298;54.918;73.504;2024-02-14T06:19:23;98793.47;;;-11.16;76.30
59487;BME280;45298;54.918;73.504;2024-02-14T06:21:52;98800.31;;;-11.12;75.02
59487;BME280;45298;54.918;73.504;2024-02-14T06:24:21;98801.25;;;-10.98;76.26
59487;BME280;45298;54.918;73.504;2024-02-14T06:26:50;98797.72;;;-11.18;74.77
59487;BME280;45298;54.918;73.504;2024-02-14T06:29:19;98826.69;;;-11.27;74.15
59487;BME280;45298;54.918;73.504;2024-02-14T06:31:49;98809.59;;;-11.33;76.50
59487;BME280;45298;54.918;73.504;2024-02-14T06:34:19;98808.72;;;-11.33;75.05
59487;BME280;45298;54.918;73.504;2024-02-14T06:36:48;98824.06;;;-11.38;77.22
59487;BME280;45298;54.918;73.504;2024-02-14T06:39:32;98810.28;;;-11.56;76.43
59487;BME280;45298;54.918;73.504;2024-02-14T06:42:01;98840.00;;;-11.72;76.22
59487;BME280;45298;54.918;73.504;2024-02-14T06:44:29;98823.66;;;-11.91;76.90
59487;BME280;45298;54.918;73.504;2024-02-14T06:47:13;98816.94;;;-11.76;76.11
59487;BME280;45298;54.918;73.504;2024-02-14T06:49:54;98821.97;;;-11.89;75.49
59487;BME280;45298;54.918;73.504;2024-02-14T06:52:24;98820.97;;;-12.09;76.61
59487;BME280;45298;54.918;73.504;2024-02-14T06:54:53;98814.25;;;-11.93;77.77
59487;BME280;45298;54.918;73.504;2024-02-14T06:57:25;98843.50;;;-11.63;79.18
59487;BME280;45298;54.918;73.504;2024-02-14T06:59:54;98850.41;;;-11.50;79.00
59487;BME280;45298;54.918;73.504;2024-02-14T07:02:23;98846.13;;;-11.52;78.14
59487;BME280;45298;54.918;73.504;2024-02-14T07:04:56;98855.56;;;-11.47;77.06
59487;BME280;45298;54.918;73.504;2024-02-14T07:07:25;98859.84;;;-11.41;77.88
59487;BME280;45298;54.918;73.504;2024-02-14T07:09:54;98873.53;;;-11.41;75.70
59487;BME280;45298;54.918;73.504;2024-02-14T07:12:22;98832.56;;;-11.41;73.88
59487;BME280;45298;54.918;73.504;2024-02-14T07:14:54;98876.88;;;-11.46;74.35
59487;BME280;45298;54.918;73.504;2024-02-14T07:17:23;98876.44;;;-11.94;76.05
59487;BME280;45298;54.918;73.504;2024-02-14T07:19:52;98900.25;;;-12.06;74.92
59487;BME280;45298;54.918;73.504;2024-02-14T07:22:21;98909.44;;;-12.22;77.10
59487;BME280;45298;54.918;73.504;2024-02-14T07:24:50;98936.47;;;-12.41;77.91
59487;BME280;45298;54.918;73.504;2024-02-14T07:27:19;98918.44;;;-12.54;77.30
59487;BME280;45298;54.918;73.504;2024-02-14T07:29:49;98925.47;;;-12.36;77.43
59487;BME280;45298;54.918;73.504;2024-02-14T07:32:18;98928.22;;;-12.20;77.57
59487;BME280;45298;54.918;73.504;2024-02-14T07:34:48;98924.59;;;-12.36;77.62
59487;BME280;45298;54.918;73.504;2024-02-14T07:37:17;98895.13;;;-12.79;74.59
59487;BME280;45298;54.918;73.504;2024-02-14T07:39:48;98952.31;;;-12.67;76.21
59487;BME280;45298;54.918;73.504;2024-02-14T07:42:16;98903.81;;;-13.26;75.53
59487;BME280;45298;54.918;73.504;2024-02-14T07:44:45;98968.31;;;-13.34;75.76
59487;BME280;45298;54.918;73.504;2024-02-14T07:47:29;98979.97;;;-13.52;74.72
59487;BME280;45298;54.918;73.504;2024-02-14T07:49:58;98984.53;;;-13.82;74.83
59487;BME280;45298;54.918;73.504;2024-02-14T07:52:27;98990.91;;;-14.04;73.34
59487;BME280;45298;54.918;73.504;2024-02-14T07:54:56;99002.03;;;-13.99;75.01
59487;BME280;45298;54.918;73.504;2024-02-14T07:57:25;99001.88;;;-13.63;75.74
59487;BME280;45298;54.918;73.504;2024-02-14T08:09:43;99032.16;;;-14.20;72.99
59487;BME280;45298;54.918;73.504;2024-02-14T08:12:14;99052.41;;;-14.28;74.25
59487;BME280;45298;54.918;73.504;2024-02-14T08:14:44;99043.44;;;-14.50;73.11
59487;BME280;45298;54.918;73.504;2024-02-14T08:17:13;99060.22;;;-14.59;73.22
59487;BME280;45298;54.918;73.504;2024-02-14T08:19:44;99076.44;;;-14.92;73.71
59487;BME280;45298;54.918;73.504;2024-02-14T08:22:14;99069.84;;;-15.19;76.09
59487;BME280;45298;54.918;73.504;2024-02-14T08:24:44;99094.13;;;-15.30;76.74
59487;BME280;45298;54.918;73.504;2024-02-14T08:27:16;99072.69;;;-15.72;76.23
59487;BME280;45298;54.918;73.504;2024-02-14T08:29:46;99086.16;;;-15.74;77.09
59487;BME280;45298;54.918;73.504;2024-02-14T08:32:14;99101.19;;;-15.82;78.18
59487;BME280;45298;54.918;73.504;2024-02-14T08:34:43;99084.63;;;-16.01;76.89
59487;BME280;45298;54.918;73.504;2024-02-14T08:37:25;99114.88;;;-16.09;76.07
59487;BME280;45298;54.918;73.504;2024-02-14T08:39:54;99137.66;;;-16.11;75.47
59487;BME280;45298;54.918;73.504;2024-02-14T08:42:24;99132.94;;;-16.27;76.68
59487;BME280;45298;54.918;73.504;2024-02-14T08:44:53;99146.16;;;-16.10;76.84
59487;BME280;45298;54.918;73.504;2024-02-14T08:47:22;99150.47;;;-16.07;75.41
59487;BME280;45298;54.918;73.504;2024-02-14T08:49:51;99165.25;;;-16.23;75.86
59487;BME280;45298;54.918;73.504;2024-02-14T08:52:21;99187.75;;;-16.34;77.55
59487;BME280;45298;54.918;73.504;2024-02-14T08:54:49;99143.81;;;-16.59;77.71
59487;BME280;45298;54.918;73.504;2024-02-14T08:57:20;99174.44;;;-16.80;78.73
59487;BME280;45298;54.918;73.504;2024-02-14T08:59:49;99220.69;;;-16.87;78.13
59487;BME280;45298;54.918;73.504;2024-02-14T09:02:32;99172.06;;;-17.25;77.53
59487;BME280;45298;54.918;73.504;2024-02-14T09:05:03;99216.78;;;-17.27;76.41
59487;BME280;45298;54.918;73.504;2024-02-14T09:07:34;99236.03;;;-17.33;78.05
59487;BME280;45298;54.918;73.504;2024-02-14T09:10:07;99229.19;;;-17.58;76.96
59487;BME280;45298;54.918;73.504;2024-02-14T09:12:36;99247.00;;;-17.56;78.78
59487;BME280;45298;54.918;73.504;2024-02-14T09:15:05;99270.38;;;-17.64;77.60
59487;BME280;45298;54.918;73.504;2024-02-14T09:17:35;99249.75;;;-17.73;78.14
59487;BME280;45298;54.918;73.504;2024-02-14T09:20:05;99279.69;;;-17.63;78.34
59487;BME280;45298;54.918;73.504;2024-02-14T09:22:36;99254.50;;;-17.59;77.90
59487;BME280;45298;54.918;73.504;2024-02-14T09:25:17;99257.94;;;-17.80;78.68
59487;BME280;45298;54.918;73.504;2024-02-14T09:27:46;99302.03;;;-17.75;77.98
59487;BME280;45298;54.918;73.504;2024-02-14T09:30:16;99307.84;;;-17.78;78.14
59487;BME280;45298;54.918;73.504;2024-02-14T09:32:59;99295.63;;;-17.88;78.37
59487;BME280;45298;54.918;73.504;2024-02-14T09:35:28;99269.66;;;-18.05;78.40
59487;BME280;45298;54.918;73.504;2024-02-14T09:37:57;99288.34;;;-18.01;78.46
59487;BME280;45298;54.918;73.504;2024-02-14T09:40:27;99317.63;;;-17.87;78.70
59487;BME280;45298;54.918;73.504;2024-02-14T09:43:03;99321.81;;;-17.87;77.63
59487;BME280;45298;54.918;73.504;2024-02-14T09:45:36;99317.50;;;-18.11;76.81
59487;BME280;45298;54.918;73.504;2024-02-14T09:48:07;99306.13;;;-18.42;76.21
59487;BME280;45298;54.918;73.504;2024-02-14T09:50:38;99301.88;;;-18.63;77.03
59487;BME280;45298;54.918;73.504;2024-02-14T09:53:08;99338.38;;;-18.58;76.96
59487;BME280;45298;54.918;73.504;2024-02-14T09:55:38;99323.34;;;-18.55;77.66
59487;BME280;45298;54.918;73.504;2024-02-14T09:58:08;99344.91;;;-18.63;77.40
59487;BME280;45298;54.918;73.504;2024-02-14T10:00:39;99348.63;;;-18.74;76.40
59487;BME280;45298;54.918;73.504;2024-02-14T10:03:16;99368.88;;;-18.74;76.94
59487;BME280;45298;54.918;73.504;2024-02-14T10:05:45;99365.25;;;-18.79;77.28
59487;BME280;45298;54.918;73.504;2024-02-14T10:08:14;99394.41;;;-18.68;76.87
59487;BME280;45298;54.918;73.504;2024-02-14T10:10:44;99395.28;;;-18.67;77.04
59487;BME280;45298;54.918;73.504;2024-02-14T10:13:19;99387.81;;;-18.84;75.80
59487;BME280;45298;54.918;73.504;2024-02-14T10:15:48;99409.97;;;-18.98;75.67
59487;BME280;45298;54.918;73.504;2024-02-14T10:18:17;99422.91;;;-19.10;75.87
59487;BME280;45298;54.918;73.504;2024-02-14T10:20:54;99425.34;;;-19.11;76.54
59487;BME280;45298;54.918;73.504;2024-02-14T10:23:28;99419.84;;;-19.22;77.04
59487;BME280;45298;54.918;73.504;2024-02-14T10:25:58;99413.75;;;-19.26;77.05
59487;BME280;45298;54.918;73.504;2024-02-14T10:28:27;99416.38;;;-19.24;76.80
59487;BME280;45298;54.918;73.504;2024-02-14T10:31:12;99428.63;;;-19.14;77.66
59487;BME280;45298;54.918;73.504;2024-02-14T10:33:41;99452.25;;;-19.13;76.53
59487;BME280;45298;54.918;73.504;2024-02-14T10:36:12;99414.63;;;-19.43;76.49
59487;BME280;45298;54.918;73.504;2024-02-14T10:38:43;99463.88;;;-19.35;75.53
59487;BME280;45298;54.918;73.504;2024-02-14T10:41:16;99455.53;;;-19.51;74.95
59487;BME280;45298;54.918;73.504;2024-02-14T10:43:45;99467.94;;;-19.55;75.58
59487;BME280;45298;54.918;73.504;2024-02-14T10:46:22;99456.75;;;-19.61;74.87
59487;BME280;45298;54.918;73.504;2024-02-14T10:48:54;99478.31;;;-19.67;74.48
59487;BME280;45298;54.918;73.504;2024-02-14T10:51:30;99495.75;;;-19.72;75.44
59487;BME280;45298;54.918;73.504;2024-02-14T10:54:02;99516.91;;;-19.70;73.84
59487;BME280;45298;54.918;73.504;2024-02-14T10:56:49;99465.63;;;-20.03;74.47
59487;BME280;45298;54.918;73.504;2024-02-14T10:59:21;99505.53;;;-19.78;75.30
59487;BME280;45298;54.918;73.504;2024-02-14T11:01:52;99509.97;;;-19.92;74.08
59487;BME280;45298;54.918;73.504;2024-02-14T11:04:21;99486.94;;;-20.31;72.78
59487;BME280;45298;54.918;73.504;2024-02-14T11:06:54;99549.63;;;-20.23;72.81
59487;BME280;45298;54.918;73.504;2024-02-14T11:09:38;99534.13;;;-20.45;72.61
59487;BME280;45298;54.918;73.504;2024-02-14T11:12:08;99557.50;;;-20.48;73.44
59487;BME280;45298;54.918;73.504;2024-02-14T11:14:42;99547.84;;;-20.72;73.78
59487;BME280;45298;54.918;73.504;2024-02-14T11:17:13;99507.13;;;-21.11;72.51
59487;BME280;45298;54.918;73.504;2024-02-14T11:19:56;99545.22;;;-20.90;73.77
59487;BME280;45298;54.918;73.504;2024-02-14T11:22:25;99559.13;;;-20.96;72.46
59487;BME280;45298;54.918;73.504;2024-02-14T11:24:54;99570.69;;;-21.15;72.90
59487;BME280;45298;54.918;73.504;2024-02-14T11:27:23;99580.94;;;-21.27;73.06
59487;BME280;45298;54.918;73.504;2024-02-14T11:30:01;99582.69;;;-21.26;74.01
59487;BME280;45298;54.918;73.504;2024-02-14T11:32:32;99587.69;;;-21.41;73.81
59487;BME280;45298;54.918;73.504;2024-02-14T11:35:02;99583.88;;;-21.49;73.26
59487;BME280;45298;54.918;73.504;2024-02-14T11:37:34;99608.00;;;-21.53;73.48
59487;BME280;45298;54.918;73.504;2024-02-14T11:40:19;99614.09;;;-21.64;72.80
59487;BME280;45298;54.918;73.504;2024-02-14T11:42:49;99619.19;;;-21.78;71.36
59487;BME280;45298;54.918;73.504;2024-02-14T11:45:18;99602.81;;;-21.99;73.09
59487;BME280;45298;54.918;73.504;2024-02-14T11:47:47;99634.59;;;-21.86;73.79
59487;BME280;45298;54.918;73.504;2024-02-14T11:50:17;99635.00;;;-21.94;73.71
59487;BME280;45298;54.918;73.504;2024-02-14T11:52:46;99642.56;;;-21.94;74.04
59487;BME280;45298;54.918;73.504;2024-02-14T11:55:17;99649.63;;;-22.01;72.76
59487;BME280;45298;54.918;73.504;2024-02-14T11:57:47;99649.72;;;-22.00;73.35
59487;BME280;45298;54.918;73.504;2024-02-14T12:00:22;99665.31;;;-22.06;73.93
59487;BME280;45298;54.918;73.504;2024-02-14T12:02:53;99669.66;;;-22.03;74.46
59487;BME280;45298;54.918;73.504;2024-02-14T12:05:22;99686.69;;;-21.99;73.07
59487;BME280;45298;54.918;73.504;2024-02-14T12:07:53;99675.19;;;-22.09;74.19
59487;BME280;45298;54.918;73.504;2024-02-14T12:10:25;99702.34;;;-22.03;73.15
59487;BME280;45298;54.918;73.504;2024-02-14T12:12:55;99677.22;;;-22.16;72.83
59487;BME280;45298;54.918;73.504;2024-02-14T12:15:25;99712.34;;;-22.05;73.73
59487;BME280;45298;54.918;73.504;2024-02-14T12:17:55;99700.34;;;-22.09;74.03
59487;BME280;45298;54.918;73.504;2024-02-14T12:20:25;99680.13;;;-22.24;73.99
59487;BME280;45298;54.918;73.504;2024-02-14T12:22:54;99693.00;;;-22.19;74.44
59487;BME280;45298;54.918;73.504;2024-02-14T12:25:23;99707.41;;;-22.30;73.60
59487;BME280;45298;54.918;73.504;2024-02-14T12:27:52;99754.03;;;-22.22;73.62
59487;BME280;45298;54.918;73.504;2024-02-14T12:30:22;99723.75;;;-22.37;72.94
59487;BME280;45298;54.918;73.504;2024-02-14T12:33:00;99684.41;;;-22.63;73.05
59487;BME280;45298;54.918;73.504;2024-02-14T12:35:36;99750.66;;;-22.36;73.37
59487;BME280;45298;54.918;73.504;2024-02-14T12:38:10;99765.41;;;-22.40;72.84
59487;BME280;45298;54.918;73.504;2024-02-14T12:40:41;99762.13;;;-22.39;73.27
59487;BME280;45298;54.918;73.504;2024-02-14T12:43:11;99772.63;;;-22.46;72.89
59487;BME280;45298;54.918;73.504;2024-02-14T12:45:43;99722.09;;;-22.76;73.13
59487;BME280;45298;54.918;73.504;2024-02-14T12:48:13;99745.97;;;-22.70;74.70
59487;BME280;45298;54.918;73.504;2024-02-14T12:50:43;99799.50;;;-22.45;72.75
59487;BME280;45298;54.918;73.504;2024-02-14T12:53:16;99803.50;;;-22.61;73.06
59487;BME280;45298;54.918;73.504;2024-02-14T12:55:57;99807.00;;;-22.59;73.54
59487;BME280;45298;54.918;73.504;2024-02-14T12:58:27;99791.31;;;-22.68;73.14
59487;BME280;45298;54.918;73.504;2024-02-14T13:00:58;99827.88;;;-22.60;72.98
59487;BME280;45298;54.918;73.504;2024-02-14T13:03:29;99812.19;;;-22.69;73.04
59487;BME280;45298;54.918;73.504;2024-02-14T13:05:58;99814.59;;;-22.71;73.50
59487;BME280;45298;54.918;73.504;2024-02-14T13:08:27;99821.56;;;-22.67;74.29
59487;BME280;45298;54.918;73.504;2024-02-14T13:10:57;99835.09;;;-22.64;73.19